Terminal Aerodrome Forecast
Issued by NWS Charleston, WV

Current Version | Previous Version | Graphics & Text | Print | Product List | Glossary On
Versions: 1 2 3 4 5 6 7 8 9 10 11 12 13 14 15 16 17 18 19 20 21 22
000
FTUS41 KRLX 161100
TAFHTS
TAF
KHTS 161137Z 1612/1712 00000KT P6SM FEW011 OVC029
     FM161300 VRB03KT 6SM BR OVC025
     FM162000 35004KT P6SM SCT035
     FM170300 00000KT P6SM SCT250
     FM170600 00000KT 3SM BR BKN200
     FM170800 00000KT 1/4SM FG VV001=

USA.gov is the U.S. government's official web portal to all federal, state and local government web resources and services.